sensor_id;sensor_type;location;lat;lon;timestamp;P1;durP1;ratioP1;P2;durP2;ratioP2
26588;SDS011;14235;48.532;8.722;2023-07-09T00:01:58;5.05;;;4.38;;
26588;SDS011;14235;48.532;8.722;2023-07-09T00:04:24;5.13;;;4.05;;
26588;SDS011;14235;48.532;8.722;2023-07-09T00:06:49;5.35;;;4.85;;
26588;SDS011;14235;48.532;8.722;2023-07-09T00:09:20;4.68;;;4.05;;
26588;SDS011;14235;48.532;8.722;2023-07-09T00:11:46;7.20;;;4.15;;
26588;SDS011;14235;48.532;8.722;2023-07-09T00:14:13;5.05;;;4.40;;
26588;SDS011;14235;48.532;8.722;2023-07-09T00:16:41;5.57;;;4.85;;
26588;SDS011;14235;48.532;8.722;2023-07-09T00:19:11;4.93;;;4.22;;
26588;SDS011;14235;48.532;8.722;2023-07-09T00:21:42;4.88;;;4.45;;
26588;SDS011;14235;48.532;8.722;2023-07-09T00:24:10;5.10;;;4.20;;
26588;SDS011;14235;48.532;8.722;2023-07-09T00:26:36;4.43;;;4.00;;
26588;SDS011;14235;48.532;8.722;2023-07-09T00:29:03;4.70;;;4.30;;
26588;SDS011;14235;48.532;8.722;2023-07-09T00:31:29;7.50;;;4.18;;
26588;SDS011;14235;48.532;8.722;2023-07-09T00:33:55;6.30;;;4.07;;
26588;SDS011;14235;48.532;8.722;2023-07-09T00:36:30;4.47;;;4.10;;
26588;SDS011;14235;48.532;8.722;2023-07-09T00:38:56;4.85;;;3.97;;
26588;SDS011;14235;48.532;8.722;2023-07-09T00:41:34;5.18;;;4.05;;
26588;SDS011;14235;48.532;8.722;2023-07-09T00:44:35;5.88;;;4.25;;
26588;SDS011;14235;48.532;8.722;2023-07-09T00:49:26;5.38;;;4.35;;
26588;SDS011;14235;48.532;8.722;2023-07-09T00:51:59;5.65;;;4.28;;
26588;SDS011;14235;48.532;8.722;2023-07-09T00:54:39;5.43;;;4.45;;
26588;SDS011;14235;48.532;8.722;2023-07-09T00:57:17;5.63;;;4.55;;
26588;SDS011;14235;48.532;8.722;2023-07-09T00:59:48;5.78;;;4.20;;
26588;SDS011;14235;48.532;8.722;2023-07-09T01:02:16;6.07;;;4.03;;
26588;SDS011;14235;48.532;8.722;2023-07-09T01:04:48;5.00;;;4.50;;
26588;SDS011;14235;48.532;8.722;2023-07-09T01:07:14;6.10;;;4.53;;
26588;SDS011;14235;48.532;8.722;2023-07-09T01:09:42;4.07;;;3.78;;
26588;SDS011;14235;48.532;8.722;2023-07-09T01:12:07;4.63;;;4.22;;
26588;SDS011;14235;48.532;8.722;2023-07-09T01:14:34;4.38;;;3.97;;
26588;SDS011;14235;48.532;8.722;2023-07-09T01:17:02;4.60;;;4.20;;
26588;SDS011;14235;48.532;8.722;2023-07-09T01:19:35;5.18;;;4.68;;
26588;SDS011;14235;48.532;8.722;2023-07-09T01:22:08;4.93;;;4.53;;
26588;SDS011;14235;48.532;8.722;2023-07-09T01:27:41;5.75;;;4.45;;
26588;SDS011;14235;48.532;8.722;2023-07-09T01:30:24;5.00;;;4.38;;
26588;SDS011;14235;48.532;8.722;2023-07-09T01:32:56;6.13;;;4.40;;
26588;SDS011;14235;48.532;8.722;2023-07-09T01:35:22;7.80;;;4.85;;
26588;SDS011;14235;48.532;8.722;2023-07-09T01:37:48;6.65;;;4.65;;
26588;SDS011;14235;48.532;8.722;2023-07-09T01:40:16;4.65;;;4.25;;
26588;SDS011;14235;48.532;8.722;2023-07-09T01:42:43;4.93;;;4.32;;
26588;SDS011;14235;48.532;8.722;2023-07-09T01:45:10;4.97;;;4.47;;
26588;SDS011;14235;48.532;8.722;2023-07-09T01:47:37;7.80;;;4.38;;
26588;SDS011;14235;48.532;8.722;2023-07-09T01:50:03;5.57;;;4.40;;
26588;SDS011;14235;48.532;8.722;2023-07-09T01:52:29;4.82;;;4.38;;
26588;SDS011;14235;48.532;8.722;2023-07-09T01:54:57;5.18;;;4.53;;
26588;SDS011;14235;48.532;8.722;2023-07-09T01:57:27;4.95;;;4.22;;
26588;SDS011;14235;48.532;8.722;2023-07-09T02:00:00;5.38;;;4.70;;
26588;SDS011;14235;48.532;8.722;2023-07-09T02:02:26;5.97;;;4.55;;
26588;SDS011;14235;48.532;8.722;2023-07-09T02:04:54;4.97;;;4.55;;
26588;SDS011;14235;48.532;8.722;2023-07-09T02:07:22;4.88;;;4.30;;
26588;SDS011;14235;48.532;8.722;2023-07-09T02:09:49;5.00;;;4.45;;
26588;SDS011;14235;48.532;8.722;2023-07-09T02:12:15;6.68;;;5.15;;
26588;SDS011;14235;48.532;8.722;2023-07-09T02:14:43;4.63;;;4.22;;
26588;SDS011;14235;48.532;8.722;2023-07-09T02:17:10;4.68;;;4.13;;
26588;SDS011;14235;48.532;8.722;2023-07-09T02:19:37;7.15;;;4.78;;
26588;SDS011;14235;48.532;8.722;2023-07-09T02:22:02;8.15;;;4.47;;
26588;SDS011;14235;48.532;8.722;2023-07-09T02:24:29;5.13;;;4.63;;
26588;SDS011;14235;48.532;8.722;2023-07-09T02:26:55;6.13;;;4.60;;
26588;SDS011;14235;48.532;8.722;2023-07-09T02:29:25;5.13;;;4.68;;
26588;SDS011;14235;48.532;8.722;2023-07-09T02:31:52;5.15;;;4.15;;
26588;SDS011;14235;48.532;8.722;2023-07-09T02:34:19;7.05;;;4.30;;
26588;SDS011;14235;48.532;8.722;2023-07-09T02:36:46;4.65;;;4.22;;
26588;SDS011;14235;48.532;8.722;2023-07-09T02:39:14;5.22;;;4.50;;
26588;SDS011;14235;48.532;8.722;2023-07-09T02:41:48;6.07;;;4.25;;
26588;SDS011;14235;48.532;8.722;2023-07-09T02:44:14;6.78;;;4.40;;
26588;SDS011;14235;48.532;8.722;2023-07-09T02:46:41;5.30;;;4.80;;
26588;SDS011;14235;48.532;8.722;2023-07-09T02:49:08;5.50;;;4.25;;
26588;SDS011;14235;48.532;8.722;2023-07-09T02:51:35;5.68;;;4.97;;
26588;SDS011;14235;48.532;8.722;2023-07-09T02:54:02;5.47;;;4.45;;
26588;SDS011;14235;48.532;8.722;2023-07-09T02:56:28;6.50;;;4.82;;
26588;SDS011;14235;48.532;8.722;2023-07-09T02:58:56;5.05;;;4.53;;
26588;SDS011;14235;48.532;8.722;2023-07-09T03:01:22;4.90;;;4.40;;
26588;SDS011;14235;48.532;8.722;2023-07-09T03:03:56;7.05;;;4.85;;
26588;SDS011;14235;48.532;8.722;2023-07-09T03:06:25;5.70;;;4.80;;
26588;SDS011;14235;48.532;8.722;2023-07-09T03:08:51;5.82;;;5.20;;
26588;SDS011;14235;48.532;8.722;2023-07-09T03:11:27;6.30;;;4.60;;
26588;SDS011;14235;48.532;8.722;2023-07-09T03:14:32;4.45;;;4.05;;
26588;SDS011;14235;48.532;8.722;2023-07-09T03:17:35;5.15;;;4.43;;
26588;SDS011;14235;48.532;8.722;2023-07-09T03:20:01;4.57;;;4.18;;
26588;SDS011;14235;48.532;8.722;2023-07-09T03:22:27;6.95;;;4.68;;
26588;SDS011;14235;48.532;8.722;2023-07-09T03:24:58;5.05;;;4.18;;
26588;SDS011;14235;48.532;8.722;2023-07-09T03:27:26;5.60;;;4.65;;
26588;SDS011;14235;48.532;8.722;2023-07-09T03:29:54;5.20;;;4.70;;
26588;SDS011;14235;48.532;8.722;2023-07-09T03:32:22;5.78;;;4.97;;
26588;SDS011;14235;48.532;8.722;2023-07-09T03:35:10;5.68;;;4.45;;
26588;SDS011;14235;48.532;8.722;2023-07-09T03:37:36;4.78;;;4.38;;
26588;SDS011;14235;48.532;8.722;2023-07-09T03:40:03;5.35;;;4.85;;
26588;SDS011;14235;48.532;8.722;2023-07-09T03:42:29;5.47;;;4.97;;
26588;SDS011;14235;48.532;8.722;2023-07-09T03:45:06;6.00;;;4.40;;
26588;SDS011;14235;48.532;8.722;2023-07-09T03:48:00;6.70;;;4.68;;
26588;SDS011;14235;48.532;8.722;2023-07-09T03:50:26;5.90;;;4.72;;
26588;SDS011;14235;48.532;8.722;2023-07-09T03:52:52;5.53;;;4.95;;
26588;SDS011;14235;48.532;8.722;2023-07-09T03:55:18;6.78;;;4.15;;
26588;SDS011;14235;48.532;8.722;2023-07-09T03:57:44;8.10;;;5.57;;
26588;SDS011;14235;48.532;8.722;2023-07-09T04:00:10;6.15;;;4.57;;
26588;SDS011;14235;48.532;8.722;2023-07-09T04:02:51;5.40;;;4.40;;
26588;SDS011;14235;48.532;8.722;2023-07-09T04:05:29;6.53;;;4.72;;
26588;SDS011;14235;48.532;8.722;2023-07-09T04:07:57;4.95;;;4.55;;
26588;SDS011;14235;48.532;8.722;2023-07-09T04:10:28;7.78;;;4.97;;
26588;SDS011;14235;48.532;8.722;2023-07-09T04:12:54;5.95;;;4.78;;
26588;SDS011;14235;48.532;8.722;2023-07-09T04:15:19;5.38;;;4.50;;
26588;SDS011;14235;48.532;8.722;2023-07-09T04:17:45;5.68;;;4.68;;
26588;SDS011;14235;48.532;8.722;2023-07-09T04:20:11;5.50;;;4.55;;
26588;SDS011;14235;48.532;8.722;2023-07-09T04:22:39;7.18;;;4.60;;
26588;SDS011;14235;48.532;8.722;2023-07-09T04:25:06;9.85;;;4.65;;
26588;SDS011;14235;48.532;8.722;2023-07-09T04:27:34;4.72;;;4.15;;
26588;SDS011;14235;48.532;8.722;2023-07-09T04:30:00;8.68;;;5.07;;
26588;SDS011;14235;48.532;8.722;2023-07-09T04:32:27;6.28;;;4.90;;
26588;SDS011;14235;48.532;8.722;2023-07-09T04:34:53;6.75;;;4.82;;
26588;SDS011;14235;48.532;8.722;2023-07-09T04:37:19;4.75;;;4.28;;
26588;SDS011;14235;48.532;8.722;2023-07-09T04:39:45;7.53;;;4.90;;
26588;SDS011;14235;48.532;8.722;2023-07-09T04:42:13;6.78;;;5.10;;
26588;SDS011;14235;48.532;8.722;2023-07-09T04:44:40;4.90;;;4.50;;
26588;SDS011;14235;48.532;8.722;2023-07-09T04:47:06;5.05;;;4.55;;
26588;SDS011;14235;48.532;8.722;2023-07-09T04:49:32;5.15;;;4.65;;
26588;SDS011;14235;48.532;8.722;2023-07-09T04:51:58;4.97;;;4.25;;
26588;SDS011;14235;48.532;8.722;2023-07-09T04:54:25;6.13;;;4.90;;
26588;SDS011;14235;48.532;8.722;2023-07-09T04:56:52;4.63;;;4.22;;
26588;SDS011;14235;48.532;8.722;2023-07-09T04:59:18;4.97;;;4.57;;
26588;SDS011;14235;48.532;8.722;2023-07-09T05:01:44;6.20;;;4.82;;
26588;SDS011;14235;48.532;8.722;2023-07-09T05:04:10;7.07;;;4.60;;
26588;SDS011;14235;48.532;8.722;2023-07-09T05:06:36;5.55;;;5.05;;
26588;SDS011;14235;48.532;8.722;2023-07-09T05:09:01;5.57;;;4.60;;
26588;SDS011;14235;48.532;8.722;2023-07-09T05:11:27;4.75;;;4.35;;
26588;SDS011;14235;48.532;8.722;2023-07-09T05:13:53;5.93;;;5.10;;
26588;SDS011;14235;48.532;8.722;2023-07-09T05:16:19;7.15;;;5.15;;
26588;SDS011;14235;48.532;8.722;2023-07-09T05:18:45;5.30;;;4.80;;
26588;SDS011;14235;48.532;8.722;2023-07-09T05:21:11;5.68;;;5.07;;
26588;SDS011;14235;48.532;8.722;2023-07-09T05:23:37;6.68;;;4.88;;
26588;SDS011;14235;48.532;8.722;2023-07-09T05:26:03;5.50;;;5.00;;
26588;SDS011;14235;48.532;8.722;2023-07-09T05:28:29;5.70;;;4.68;;
26588;SDS011;14235;48.532;8.722;2023-07-09T05:30:57;6.30;;;5.13;;
26588;SDS011;14235;48.532;8.722;2023-07-09T05:33:24;6.00;;;5.18;;
26588;SDS011;14235;48.532;8.722;2023-07-09T05:35:49;6.68;;;5.22;;
26588;SDS011;14235;48.532;8.722;2023-07-09T05:38:15;5.50;;;4.97;;
26588;SDS011;14235;48.532;8.722;2023-07-09T05:40:42;6.20;;;5.60;;
26588;SDS011;14235;48.532;8.722;2023-07-09T05:43:09;6.15;;;5.55;;
26588;SDS011;14235;48.532;8.722;2023-07-09T05:45:35;5.28;;;4.78;;
26588;SDS011;14235;48.532;8.722;2023-07-09T05:48:03;6.03;;;5.30;;
26588;SDS011;14235;48.532;8.722;2023-07-09T05:50:29;6.57;;;5.20;;
26588;SDS011;14235;48.532;8.722;2023-07-09T05:52:55;5.72;;;4.90;;
26588;SDS011;14235;48.532;8.722;2023-07-09T05:55:20;6.53;;;5.85;;
26588;SDS011;14235;48.532;8.722;2023-07-09T05:57:46;5.47;;;4.97;;
26588;SDS011;14235;48.532;8.722;2023-07-09T06:00:12;6.47;;;5.22;;
26588;SDS011;14235;48.532;8.722;2023-07-09T06:02:38;6.03;;;5.13;;
26588;SDS011;14235;48.532;8.722;2023-07-09T06:05:04;5.78;;;5.25;;
26588;SDS011;14235;48.532;8.722;2023-07-09T06:07:36;6.10;;;5.40;;
26588;SDS011;14235;48.532;8.722;2023-07-09T06:10:02;5.65;;;5.15;;
26588;SDS011;14235;48.532;8.722;2023-07-09T06:12:30;7.05;;;5.28;;
26588;SDS011;14235;48.532;8.722;2023-07-09T06:14:55;5.45;;;5.00;;
26588;SDS011;14235;48.532;8.722;2023-07-09T06:17:21;5.82;;;5.00;;
26588;SDS011;14235;48.532;8.722;2023-07-09T06:19:47;6.10;;;5.00;;
26588;SDS011;14235;48.532;8.722;2023-07-09T06:22:12;5.78;;;5.18;;
26588;SDS011;14235;48.532;8.722;2023-07-09T06:24:38;5.95;;;5.32;;
26588;SDS011;14235;48.532;8.722;2023-07-09T06:27:04;6.22;;;5.25;;
26588;SDS011;14235;48.532;8.722;2023-07-09T06:29:30;5.85;;;5.30;;
26588;SDS011;14235;48.532;8.722;2023-07-09T06:31:56;6.20;;;5.40;;
26588;SDS011;14235;48.532;8.722;2023-07-09T06:34:21;6.03;;;5.35;;
26588;SDS011;14235;48.532;8.722;2023-07-09T06:36:47;5.90;;;5.38;;
26588;SDS011;14235;48.532;8.722;2023-07-09T06:39:13;6.43;;;5.68;;
26588;SDS011;14235;48.532;8.722;2023-07-09T06:41:38;5.13;;;4.72;;
26588;SDS011;14235;48.532;8.722;2023-07-09T06:44:05;6.18;;;5.57;;
26588;SDS011;14235;48.532;8.722;2023-07-09T06:46:32;8.88;;;5.10;;
26588;SDS011;14235;48.532;8.722;2023-07-09T06:48:58;5.97;;;5.38;;
26588;SDS011;14235;48.532;8.722;2023-07-09T06:51:24;6.00;;;5.50;;
26588;SDS011;14235;48.532;8.722;2023-07-09T06:53:50;6.15;;;5.53;;
26588;SDS011;14235;48.532;8.722;2023-07-09T06:56:16;6.57;;;5.30;;
26588;SDS011;14235;48.532;8.722;2023-07-09T06:58:42;6.95;;;5.20;;
26588;SDS011;14235;48.532;8.722;2023-07-09T07:01:11;6.35;;;5.45;;
26588;SDS011;14235;48.532;8.722;2023-07-09T07:03:37;6.28;;;5.63;;
26588;SDS011;14235;48.532;8.722;2023-07-09T07:06:02;6.60;;;5.85;;
26588;SDS011;14235;48.532;8.722;2023-07-09T07:08:30;5.55;;;4.93;;
26588;SDS011;14235;48.532;8.722;2023-07-09T07:10:56;9.70;;;5.45;;
26588;SDS011;14235;48.532;8.722;2023-07-09T07:13:27;5.63;;;5.13;;
26588;SDS011;14235;48.532;8.722;2023-07-09T07:15:54;5.10;;;4.60;;
26588;SDS011;14235;48.532;8.722;2023-07-09T07:18:20;6.20;;;5.10;;
26588;SDS011;14235;48.532;8.722;2023-07-09T07:20:45;6.13;;;5.03;;
26588;SDS011;14235;48.532;8.722;2023-07-09T07:23:33;5.18;;;4.75;;
26588;SDS011;14235;48.532;8.722;2023-07-09T07:27:23;6.32;;;5.43;;
26588;SDS011;14235;48.532;8.722;2023-07-09T07:29:52;6.72;;;5.35;;
26588;SDS011;14235;48.532;8.722;2023-07-09T07:32:19;5.50;;;4.95;;
26588;SDS011;14235;48.532;8.722;2023-07-09T07:34:46;5.95;;;5.28;;
26588;SDS011;14235;48.532;8.722;2023-07-09T07:37:12;5.32;;;4.82;;
26588;SDS011;14235;48.532;8.722;2023-07-09T07:39:38;6.05;;;4.90;;
26588;SDS011;14235;48.532;8.722;2023-07-09T07:42:04;5.95;;;5.35;;
26588;SDS011;14235;48.532;8.722;2023-07-09T07:44:30;5.57;;;5.15;;
26588;SDS011;14235;48.532;8.722;2023-07-09T07:46:56;5.55;;;5.05;;
26588;SDS011;14235;48.532;8.722;2023-07-09T07:49:21;5.75;;;5.22;;
26588;SDS011;14235;48.532;8.722;2023-07-09T07:51:47;6.43;;;5.03;;
26588;SDS011;14235;48.532;8.722;2023-07-09T07:54:13;5.65;;;5.15;;
26588;SDS011;14235;48.532;8.722;2023-07-09T07:56:39;5.85;;;5.20;;
26588;SDS011;14235;48.532;8.722;2023-07-09T07:59:05;8.40;;;4.80;;
26588;SDS011;14235;48.532;8.722;2023-07-09T08:01:31;7.13;;;5.13;;
26588;SDS011;14235;48.532;8.722;2023-07-09T08:03:58;4.68;;;4.28;;
26588;SDS011;14235;48.532;8.722;2023-07-09T08:06:23;5.22;;;4.40;;
26588;SDS011;14235;48.532;8.722;2023-07-09T08:08:52;6.18;;;4.75;;
26588;SDS011;14235;48.532;8.722;2023-07-09T08:11:18;5.43;;;4.55;;
26588;SDS011;14235;48.532;8.722;2023-07-09T08:13:44;4.93;;;4.00;;
26588;SDS011;14235;48.532;8.722;2023-07-09T08:16:10;4.57;;;4.18;;
26588;SDS011;14235;48.532;8.722;2023-07-09T08:18:37;5.75;;;3.97;;
26588;SDS011;14235;48.532;8.722;2023-07-09T08:21:03;4.55;;;3.70;;
26588;SDS011;14235;48.532;8.722;2023-07-09T08:23:29;5.13;;;3.63;;
26588;SDS011;14235;48.532;8.722;2023-07-09T08:25:55;4.05;;;3.47;;
26588;SDS011;14235;48.532;8.722;2023-07-09T08:28:22;3.75;;;3.42;;
26588;SDS011;14235;48.532;8.722;2023-07-09T08:30:47;4.40;;;3.40;;
26588;SDS011;14235;48.532;8.722;2023-07-09T08:33:14;3.78;;;3.33;;
26588;SDS011;14235;48.532;8.722;2023-07-09T08:35:42;3.97;;;3.58;;
26588;SDS011;14235;48.532;8.722;2023-07-09T08:38:08;3.72;;;3.40;;
26588;SDS011;14235;48.532;8.722;2023-07-09T08:40:38;4.55;;;3.45;;
26588;SDS011;14235;48.532;8.722;2023-07-09T08:43:39;4.00;;;3.60;;
26588;SDS011;14235;48.532;8.722;2023-07-09T08:46:10;4.22;;;3.53;;
26588;SDS011;14235;48.532;8.722;2023-07-09T08:48:46;3.83;;;3.50;;
26588;SDS011;14235;48.532;8.722;2023-07-09T08:54:02;4.30;;;3.50;;
26588;SDS011;14235;48.532;8.722;2023-07-09T08:56:29;4.63;;;3.45;;
26588;SDS011;14235;48.532;8.722;2023-07-09T08:58:58;3.80;;;3.40;;
26588;SDS011;14235;48.532;8.722;2023-07-09T09:01:27;3.75;;;3.40;;
26588;SDS011;14235;48.532;8.722;2023-07-09T09:04:03;4.10;;;3.53;;
26588;SDS011;14235;48.532;8.722;2023-07-09T09:06:38;3.90;;;3.40;;
26588;SDS011;14235;48.532;8.722;2023-07-09T09:14:42;3.22;;;2.95;;
26588;SDS011;14235;48.532;8.722;2023-07-09T09:17:11;3.55;;;3.25;;
26588;SDS011;14235;48.532;8.722;2023-07-09T09:19:48;3.83;;;3.47;;
26588;SDS011;14235;48.532;8.722;2023-07-09T09:22:25;4.13;;;3.42;;
26588;SDS011;14235;48.532;8.722;2023-07-09T09:27:28;3.50;;;3.20;;
26588;SDS011;14235;48.532;8.722;2023-07-09T09:29:55;3.63;;;3.33;;
26588;SDS011;14235;48.532;8.722;2023-07-09T09:32:27;3.95;;;3.00;;
26588;SDS011;14235;48.532;8.722;2023-07-09T09:34:56;4.10;;;3.13;;
26588;SDS011;14235;48.532;8.722;2023-07-09T09:37:26;3.30;;;3.00;;
26588;SDS011;14235;48.532;8.722;2023-07-09T09:39:54;3.92;;;3.22;;
26588;SDS011;14235;48.532;8.722;2023-07-09T09:42:22;3.53;;;3.20;;
26588;SDS011;14235;48.532;8.722;2023-07-09T09:44:50;3.65;;;3.25;;
26588;SDS011;14235;48.532;8.722;2023-07-09T09:47:20;6.00;;;3.10;;
26588;SDS011;14235;48.532;8.722;2023-07-09T09:49:51;3.42;;;3.15;;
26588;SDS011;14235;48.532;8.722;2023-07-09T09:52:18;5.03;;;3.03;;
26588;SDS011;14235;48.532;8.722;2023-07-09T09:54:48;3.50;;;3.20;;
26588;SDS011;14235;48.532;8.722;2023-07-09T09:57:19;3.50;;;3.13;;
26588;SDS011;14235;48.532;8.722;2023-07-09T09:59:48;3.30;;;3.03;;
26588;SDS011;14235;48.532;8.722;2023-07-09T10:02:19;4.72;;;3.00;;
26588;SDS011;14235;48.532;8.722;2023-07-09T10:04:48;3.30;;;3.00;;
26588;SDS011;14235;48.532;8.722;2023-07-09T10:07:18;4.38;;;2.92;;
26588;SDS011;14235;48.532;8.722;2023-07-09T10:09:52;3.30;;;3.00;;
26588;SDS011;14235;48.532;8.722;2023-07-09T10:12:32;3.83;;;3.10;;
26588;SDS011;14235;48.532;8.722;2023-07-09T10:15:08;3.53;;;2.90;;
26588;SDS011;14235;48.532;8.722;2023-07-09T10:20:36;4.07;;;2.80;;
26588;SDS011;14235;48.532;8.722;2023-07-09T10:23:25;3.15;;;2.95;;
26588;SDS011;14235;48.532;8.722;2023-07-09T10:26:08;3.75;;;3.03;;
26588;SDS011;14235;48.532;8.722;2023-07-09T10:34:05;4.45;;;3.10;;
26588;SDS011;14235;48.532;8.722;2023-07-09T10:39:53;3.30;;;3.00;;
26588;SDS011;14235;48.532;8.722;2023-07-09T10:42:27;4.82;;;3.55;;
26588;SDS011;14235;48.532;8.722;2023-07-09T10:44:57;3.90;;;3.28;;
26588;SDS011;14235;48.532;8.722;2023-07-09T10:47:38;3.60;;;3.05;;
26588;SDS011;14235;48.532;8.722;2023-07-09T10:50:10;4.45;;;3.60;;
26588;SDS011;14235;48.532;8.722;2023-07-09T10:52:43;5.45;;;3.75;;
26588;SDS011;14235;48.532;8.722;2023-07-09T10:55:26;3.90;;;3.38;;
26588;SDS011;14235;48.532;8.722;2023-07-09T11:00:50;3.80;;;3.45;;
26588;SDS011;14235;48.532;8.722;2023-07-09T11:03:22;6.00;;;3.40;;
26588;SDS011;14235;48.532;8.722;2023-07-09T11:05:56;4.60;;;3.63;;
26588;SDS011;14235;48.532;8.722;2023-07-09T11:08:24;5.03;;;3.65;;
26588;SDS011;14235;48.532;8.722;2023-07-09T11:10:59;4.85;;;3.70;;
26588;SDS011;14235;48.532;8.722;2023-07-09T11:15:54;7.57;;;3.75;;
26588;SDS011;14235;48.532;8.722;2023-07-09T11:18:26;4.22;;;3.72;;
26588;SDS011;14235;48.532;8.722;2023-07-09T11:20:59;5.00;;;3.83;;
26588;SDS011;14235;48.532;8.722;2023-07-09T11:23:38;4.57;;;4.05;;
26588;SDS011;14235;48.532;8.722;2023-07-09T11:28:40;4.97;;;4.20;;
26588;SDS011;14235;48.532;8.722;2023-07-09T11:31:17;5.55;;;4.47;;
26588;SDS011;14235;48.532;8.722;2023-07-09T11:33:49;4.50;;;4.10;;
26588;SDS011;14235;48.532;8.722;2023-07-09T11:36:27;5.53;;;4.20;;
26588;SDS011;14235;48.532;8.722;2023-07-09T11:38:55;6.00;;;3.78;;
26588;SDS011;14235;48.532;8.722;2023-07-09T11:41:33;7.07;;;4.00;;
26588;SDS011;14235;48.532;8.722;2023-07-09T11:44:20;4.25;;;3.90;;
26588;SDS011;14235;48.532;8.722;2023-07-09T11:49:52;5.38;;;3.50;;
26588;SDS011;14235;48.532;8.722;2023-07-09T11:55:41;4.35;;;3.80;;
26588;SDS011;14235;48.532;8.722;2023-07-09T11:58:12;5.57;;;3.90;;
26588;SDS011;14235;48.532;8.722;2023-07-09T12:00:50;5.35;;;4.13;;
26588;SDS011;14235;48.532;8.722;2023-07-09T12:03:25;5.22;;;3.88;;
26588;SDS011;14235;48.532;8.722;2023-07-09T12:06:22;5.35;;;3.88;;
26588;SDS011;14235;48.532;8.722;2023-07-09T12:08:57;5.00;;;4.20;;
26588;SDS011;14235;48.532;8.722;2023-07-09T12:11:33;7.15;;;4.07;;
26588;SDS011;14235;48.532;8.722;2023-07-09T12:14:10;5.07;;;4.00;;
26588;SDS011;14235;48.532;8.722;2023-07-09T12:16:44;4.50;;;3.70;;
26588;SDS011;14235;48.532;8.722;2023-07-09T12:19:12;4.93;;;3.42;;
26588;SDS011;14235;48.532;8.722;2023-07-09T12:21:44;7.30;;;3.95;;
26588;SDS011;14235;48.532;8.722;2023-07-09T12:24:20;4.32;;;3.70;;
26588;SDS011;14235;48.532;8.722;2023-07-09T12:27:24;6.47;;;3.67;;
26588;SDS011;14235;48.532;8.722;2023-07-09T12:29:56;4.70;;;3.83;;
26588;SDS011;14235;48.532;8.722;2023-07-09T12:32:23;4.15;;;3.58;;
26588;SDS011;14235;48.532;8.722;2023-07-09T12:34:58;5.00;;;3.88;;
26588;SDS011;14235;48.532;8.722;2023-07-09T12:37:29;4.93;;;3.53;;
26588;SDS011;14235;48.532;8.722;2023-07-09T12:39:56;5.35;;;3.80;;
26588;SDS011;14235;48.532;8.722;2023-07-09T12:42:29;4.25;;;3.42;;
26588;SDS011;14235;48.532;8.722;2023-07-09T12:44:57;4.55;;;3.67;;
26588;SDS011;14235;48.532;8.722;2023-07-09T12:47:24;5.40;;;3.72;;
26588;SDS011;14235;48.532;8.722;2023-07-09T12:49:50;6.82;;;3.42;;
26588;SDS011;14235;48.532;8.722;2023-07-09T12:52:24;5.18;;;3.38;;
26588;SDS011;14235;48.532;8.722;2023-07-09T12:54:57;5.93;;;3.90;;
26588;SDS011;14235;48.532;8.722;2023-07-09T12:57:24;4.82;;;3.50;;
26588;SDS011;14235;48.532;8.722;2023-07-09T12:59:51;4.25;;;3.72;;
26588;SDS011;14235;48.532;8.722;2023-07-09T13:02:20;6.05;;;3.72;;
26588;SDS011;14235;48.532;8.722;2023-07-09T13:04:48;3.85;;;3.38;;
26588;SDS011;14235;48.532;8.722;2023-07-09T13:09:50;5.82;;;3.70;;
26588;SDS011;14235;48.532;8.722;2023-07-09T13:12:18;5.53;;;4.00;;
26588;SDS011;14235;48.532;8.722;2023-07-09T13:14:55;3.88;;;3.38;;
26588;SDS011;14235;48.532;8.722;2023-07-09T13:17:21;4.10;;;3.45;;
26588;SDS011;14235;48.532;8.722;2023-07-09T13:19:47;4.88;;;3.47;;
26588;SDS011;14235;48.532;8.722;2023-07-09T13:22:13;3.83;;;3.40;;
26588;SDS011;14235;48.532;8.722;2023-07-09T13:24:41;4.03;;;3.63;;
26588;SDS011;14235;48.532;8.722;2023-07-09T13:27:14;4.45;;;3.55;;
26588;SDS011;14235;48.532;8.722;2023-07-09T13:29:41;5.20;;;3.72;;
26588;SDS011;14235;48.532;8.722;2023-07-09T13:32:11;4.65;;;3.47;;
26588;SDS011;14235;48.532;8.722;2023-07-09T13:34:39;3.63;;;3.40;;
26588;SDS011;14235;48.532;8.722;2023-07-09T13:37:08;6.72;;;3.60;;
26588;SDS011;14235;48.532;8.722;2023-07-09T13:39:38;3.95;;;3.60;;
26588;SDS011;14235;48.532;8.722;2023-07-09T13:42:05;4.72;;;3.20;;
26588;SDS011;14235;48.532;8.722;2023-07-09T13:44:38;5.57;;;3.25;;
26588;SDS011;14235;48.532;8.722;2023-07-09T13:47:04;3.72;;;3.42;;
26588;SDS011;14235;48.532;8.722;2023-07-09T13:49:31;3.95;;;3.30;;
26588;SDS011;14235;48.532;8.722;2023-07-09T13:51:58;3.63;;;3.33;;
26588;SDS011;14235;48.532;8.722;2023-07-09T13:54:25;4.55;;;3.33;;
26588;SDS011;14235;48.532;8.722;2023-07-09T13:56:53;5.03;;;3.15;;
26588;SDS011;14235;48.532;8.722;2023-07-09T13:59:22;4.80;;;3.42;;
26588;SDS011;14235;48.532;8.722;2023-07-09T14:01:49;4.05;;;3.25;;
26588;SDS011;14235;48.532;8.722;2023-07-09T14:04:18;4.95;;;3.45;;
26588;SDS011;14235;48.532;8.722;2023-07-09T14:06:45;4.25;;;3.70;;
26588;SDS011;14235;48.532;8.722;2023-07-09T14:09:11;3.83;;;3.28;;
26588;SDS011;14235;48.532;8.722;2023-07-09T14:11:41;3.65;;;3.33;;
26588;SDS011;14235;48.532;8.722;2023-07-09T14:14:17;6.18;;;3.25;;
26588;SDS011;14235;48.532;8.722;2023-07-09T14:16:49;4.35;;;3.17;;
26588;SDS011;14235;48.532;8.722;2023-07-09T14:19:17;4.50;;;3.50;;
26588;SDS011;14235;48.532;8.722;2023-07-09T14:21:45;4.72;;;3.60;;
26588;SDS011;14235;48.532;8.722;2023-07-09T14:24:25;6.75;;;3.67;;
26588;SDS011;14235;48.532;8.722;2023-07-09T14:26:53;3.70;;;3.30;;
26588;SDS011;14235;48.532;8.722;2023-07-09T14:29:20;3.70;;;3.40;;
26588;SDS011;14235;48.532;8.722;2023-07-09T14:31:47;5.32;;;3.55;;
26588;SDS011;14235;48.532;8.722;2023-07-09T14:34:24;4.75;;;3.60;;
26588;SDS011;14235;48.532;8.722;2023-07-09T14:36:55;4.22;;;3.47;;
26588;SDS011;14235;48.532;8.722;2023-07-09T14:39:22;4.68;;;3.30;;
26588;SDS011;14235;48.532;8.722;2023-07-09T14:41:50;3.88;;;3.20;;
26588;SDS011;14235;48.532;8.722;2023-07-09T14:44:22;4.65;;;3.20;;
26588;SDS011;14235;48.532;8.722;2023-07-09T14:46:53;5.32;;;3.30;;
26588;SDS011;14235;48.532;8.722;2023-07-09T14:49:21;5.55;;;3.83;;
26588;SDS011;14235;48.532;8.722;2023-07-09T14:51:48;4.90;;;3.72;;
26588;SDS011;14235;48.532;8.722;2023-07-09T14:54:20;5.05;;;3.63;;
26588;SDS011;14235;48.532;8.722;2023-07-09T14:56:48;4.30;;;3.50;;
26588;SDS011;14235;48.532;8.722;2023-07-09T14:59:15;3.83;;;3.50;;
26588;SDS011;14235;48.532;8.722;2023-07-09T15:01:41;4.18;;;3.20;;
26588;SDS011;14235;48.532;8.722;2023-07-09T15:06:47;4.28;;;3.35;;
26588;SDS011;14235;48.532;8.722;2023-07-09T15:09:13;3.90;;;3.60;;
26588;SDS011;14235;48.532;8.722;2023-07-09T15:11:39;3.50;;;3.20;;
26588;SDS011;14235;48.532;8.722;2023-07-09T15:14:09;5.55;;;3.70;;
26588;SDS011;14235;48.532;8.722;2023-07-09T15:16:36;4.25;;;3.55;;
26588;SDS011;14235;48.532;8.722;2023-07-09T15:19:04;3.47;;;3.17;;
26588;SDS011;14235;48.532;8.722;2023-07-09T15:21:36;4.35;;;3.38;;
26588;SDS011;14235;48.532;8.722;2023-07-09T15:24:02;4.28;;;3.63;;
26588;SDS011;14235;48.532;8.722;2023-07-09T15:26:28;5.43;;;3.80;;
26588;SDS011;14235;48.532;8.722;2023-07-09T15:28:55;3.58;;;3.10;;
26588;SDS011;14235;48.532;8.722;2023-07-09T15:31:21;4.90;;;3.55;;
26588;SDS011;14235;48.532;8.722;2023-07-09T15:33:47;4.00;;;3.22;;
26588;SDS011;14235;48.532;8.722;2023-07-09T15:36:15;5.90;;;3.78;;
26588;SDS011;14235;48.532;8.722;2023-07-09T15:38:41;5.07;;;3.50;;
26588;SDS011;14235;48.532;8.722;2023-07-09T15:41:11;6.95;;;3.70;;
26588;SDS011;14235;48.532;8.722;2023-07-09T15:43:38;4.88;;;3.63;;
26588;SDS011;14235;48.532;8.722;2023-07-09T15:46:08;5.80;;;3.50;;
26588;SDS011;14235;48.532;8.722;2023-07-09T15:48:45;4.20;;;3.25;;
26588;SDS011;14235;48.532;8.722;2023-07-09T15:51:11;6.45;;;3.67;;